Fairfax, Alabama
Current Conditions -  °F | °C
As of 11:35 PM on Wednesday 26 Nov 2014 (Local Time) from KLGC Reporting Station
Broken Clouds Broken Clouds  
Wind Chill: 54°   Ceiling: 8000
Heat Index: 54°   Visibility: 10mi
Dew Point: 36°   Wind: 12mph
Humidity: 51%   Direction: 280°W
Pressure: 30.12"   Gusts: NA
Location:  32.7858°N, 85.1946°W
Report Text: KLGC 270535Z AUTO 28010KT 10SM SCT070 BKN080 12/02 A3012 RMK AO2 T01200022
Loading
Personal Weather Stations






























Interactive Weather Map New forecast layout! Learn more

10-Day Weather Forecast

Advertisements
Track Severe Weather on mobile